XCL weather

Cluff Lake Airport
Cluff Lake, Saskatchewan, Canada

Public forecast

Using degrees Celsius for public forecast. Weather courtesy of forecast.io.

METAR (pilot weather report)

Closest report is Fort Chipewyan Airport, 55.0 nm (101.8 km) WNW. Retrieved 2019/05/22 05:00 UTC (18 minutes ago):

CYPY 220500Z AUTO 06014KT 9SM BKN230 09/02 A3007 RMK SLP192

TAF (pilot weather forecast)

Forecast is more than 12 hours old.

Closest forecast is Fort Chipewyan Airport, 55.0 nm (101.8 km) WNW. Retrieved 2019/05/21 00:00 UTC (1 day ago):

TAF CYPY 212339Z 2200/2206 12008KT P6SM SKC BECMG 2202/2204 06012KT RMK FCST BASED ON AUTO OBS. NXT FCST WILL BE ISSUED AT 221145Z